Terminal Aerodrome Forecast
Issued by NWS Missoula, MT

Home | Current Version | Previous Version | Text Only | Print | Product List | Glossary On
Versions: 1 2 3 4 5 6 7 8 9 10 11 12 13 14 15 16
000
FTUS45 KMSO 022327
TAFBTM
TAF
KBTM 022327Z 0300/0324 VRB06KT P6SM VCTS FEW050CB BKN090
      TEMPO 0300/0302 VRB10G20KT
     FM030200 31009KT P6SM VCSH BKN080=

USA.gov is the U.S. government's official web portal to all federal, state and local government web resources and services.